ANACAPA ISLAND CA US current weather conditions

sailwx.info

Wind from 293 at 3 knots gusting 8

Air temperature 10.0° C
Dewpoint 9.8° C

Last reported at 2018-Apr-24 07:23 UTC.
Time now 2018-Apr-24 08:49 UTC

Location: N 34°01' W 119°22'.
View on Google Maps.

See reports from other nearby stations

  
Tides and Currents Weather Stations Pressure Air Temp Water Temp Dewpoint Dewpoint Depression Visibility Wind Speed Wind Dir Waves Ship Positions
date/time (UTC)wind fromknots sea level pressurealtimeterstation pressurevisibilityair tempwater tempwave heightnotes
2018-Apr-24 07:23 293 3 gusting 8 10.0
2018-Apr-24 06:23 323 6 gusting 13 10.0
2018-Apr-24 05:23 334 9 gusting 15 10.6
2018-Apr-24 04:23 337 10 gusting 15 10.6
2018-Apr-24 03:23 334 10 gusting 16 11.1
2018-Apr-24 02:23 332 9 gusting 15 11.7
2018-Apr-24 01:23 320 6 gusting 11 12.8
2018-Apr-24 00:23 299 4 gusting 8 13.3
2018-Apr-23 23:23 332 3 gusting 6 15.0
2018-Apr-23 22:23 251 2 gusting 7 15.6
2018-Apr-23 21:23 312 3 gusting 9 15.0
2018-Apr-23 20:23 069 1 gusting 7 15.6
2018-Apr-23 19:23 037 3 gusting 6 15.0
2018-Apr-23 18:23 037 2 gusting 6 14.4
2018-Apr-23 17:23 045 3 gusting 8 13.3
2018-Apr-23 16:23 044 2 gusting 9 12.8
2018-Apr-23 15:23 062 6 gusting 13 12.2
2018-Apr-23 14:23 062 6 gusting 12 12.8
2018-Apr-23 13:23 039 3 gusting 8 12.8
2018-Apr-23 12:23 056 4 gusting 11 12.8
2018-Apr-23 11:23 049 2 gusting 6 12.8
2018-Apr-23 10:23 080 2 gusting 4 12.2
2018-Apr-23 09:23 315 2 gusting 7 12.2
2018-Apr-23 08:23 306 5 gusting 7 12.2
2018-Apr-23 07:23 328 4 gusting 8 12.8
2018-Apr-23 06:23 329 5 gusting 10 13.3
2018-Apr-23 05:23 323 6 gusting 15 13.3
2018-Apr-23 04:23 315 11 gusting 14 13.3
2018-Apr-23 03:23 326 6 gusting 15 13.3
2018-Apr-23 02:23 309 7 gusting 12 13.9
2018-Apr-23 01:23 312 6 gusting 10 16.1
2018-Apr-23 00:23 312 5 gusting 7 17.2
2018-Apr-22 23:23 305 3 gusting 5 18.9
2018-Apr-22 22:23 339 3 gusting 6 17.8
2018-Apr-22 21:23 206 2 gusting 4 19.4
2018-Apr-22 20:23 201 2 gusting 5 18.9
2018-Apr-22 19:23 183 1 gusting 6 18.3
2018-Apr-22 18:23 144 3 gusting 7 17.8
2018-Apr-22 17:23 178 1 gusting 7 16.7
2018-Apr-22 16:23 131 2 gusting 8 16.1
2018-Apr-22 15:23 153 1 gusting 6 13.9
2018-Apr-22 14:23 108 3 gusting 10 13.9
2018-Apr-22 13:23 085 6 gusting 9 12.8
2018-Apr-22 12:23 081 5 gusting 7 12.2
2018-Apr-22 11:23 348 2 gusting 4 12.8
2018-Apr-22 10:23 054 3 gusting 6 12.8
2018-Apr-22 09:23 334 4 gusting 10 12.8
2018-Apr-22 08:23 346 8 gusting 10 13.3